ADDS METAR Data INFO
IDs: Format: Raw Decoded Include TAF

Data at: 2305 UTC 15 Jul 2018

METAR for:TJSJ (San Juan/Marin Intl, PR, US)
Text:TJSJ 152256Z 08014KT 10SM FEW028 SCT034 SCT100 28/25 A3003 RMK AO2 SLP169 T02830250 $
Temperature: 28.3°C ( 83°F)
Dewpoint: 25.0°C ( 77°F) [RH = 82%]
Pressure (altimeter):30.03 inches Hg (1017.0 mb) [Sea level pressure: 1016.9 mb]
Winds:from the E (80 degrees) at 16 MPH (14 knots; 7.2 m/s)
Visibility:10 or more sm (16+ km)
Ceiling:at least 12,000 feet AGL
Clouds: few clouds at 2800 feet AGL, scattered clouds at 3400 feet AGL, scattered clouds at 10000 feet AGL
QC Flag:SOME DATA ABOVE MAY BE INACCURATE!!!"$" is an indication the sensor requires maintenance.